CCA931 ZBAA-EDDF
Flight info
| Callsign | CCA931 |
|---|---|
| Flight time | N/A |
| Altitude | 32100 |
| Route | IDKEX2G IDKEX B339 ASILA/K0913S1040 A575 INTIK Y618 AMUTA/K0893F340 R229 KESUM R372 ADONI B800 KUMOD/K0893F360 N869 UNISO L870 MOGPI/K0887F380 L870 RANVA/N0475F380 L870 RESMO DCT TODNA DCT DEREX DCT KOLJA DCT GORPI Z80 TILAV L87 KETAP DCT PENEK DCT POVEL DCT RIMET/N0498F310 T157 KOKEB/N0456F230 T157 KERAX KERAX5D |
| Aircraft | B77W/H-SDE1E2E3FGHIJ2J3J4J5M1RWXY/LB1D1 |
Departure
| Time | 2026-05-01 14:48 |
|---|---|
| Airport | Beijing Capital International Airport (ZBAA) |
Arrival
| Time | N/A |
|---|---|
| Airport | Frankfurt Main Airport (EDDF) |
| Time | Latitude | Longitude | Altitude | Speed | Heading |
|---|---|---|---|---|---|
| 2026-05-01 14:17 | 40.07270 | 116.60475 | 130 ft | 0 kts | 83° |
| 2026-05-01 14:32 | 40.07270 | 116.60474 | 130 ft | 1 kts | 83° |
| 2026-05-01 14:32 | 40.07268 | 116.60455 | 130 ft | 2 kts | 94° |
| 2026-05-01 14:32 | 40.07271 | 116.60436 | 130 ft | 2 kts | 108° |
| 2026-05-01 14:33 | 40.07277 | 116.60417 | 130 ft | 2 kts | 118° |
| 2026-05-01 14:33 | 40.07285 | 116.60402 | 130 ft | 2 kts | 130° |
| 2026-05-01 14:33 | 40.07295 | 116.60388 | 130 ft | 2 kts | 141° |
| 2026-05-01 14:33 | 40.07307 | 116.60377 | 130 ft | 2 kts | 152° |
| 2026-05-01 14:34 | 40.07321 | 116.60369 | 130 ft | 2 kts | 163° |
| 2026-05-01 14:34 | 40.07335 | 116.60365 | 130 ft | 2 kts | 174° |
| 2026-05-01 14:34 | 40.07345 | 116.60364 | 130 ft | 0 kts | 174° |
| 2026-05-01 14:37 | 40.07337 | 116.60365 | 130 ft | 1 kts | 174° |
| 2026-05-01 14:37 | 40.07317 | 116.60367 | 130 ft | 3 kts | 174° |
| 2026-05-01 14:37 | 40.07287 | 116.60361 | 130 ft | 5 kts | 202° |
| 2026-05-01 14:38 | 40.07257 | 116.60326 | 130 ft | 6 kts | 240° |
| 2026-05-01 14:38 | 40.07245 | 116.60268 | 130 ft | 7 kts | 259° |
| 2026-05-01 14:38 | 40.07235 | 116.60195 | 130 ft | 8 kts | 264° |
| 2026-05-01 14:38 | 40.07229 | 116.60108 | 130 ft | 10 kts | 265° |
| 2026-05-01 14:39 | 40.07206 | 116.60021 | 130 ft | 10 kts | 228° |
| 2026-05-01 14:39 | 40.07134 | 116.60002 | 130 ft | 11 kts | 178° |
| 2026-05-01 14:39 | 40.07054 | 116.60014 | 130 ft | 11 kts | 173° |
| 2026-05-01 14:39 | 40.07029 | 116.60017 | 130 ft | 0 kts | 173° |
| 2026-05-01 14:40 | 40.07017 | 116.60020 | 130 ft | 2 kts | 173° |
| 2026-05-01 14:40 | 40.07012 | 116.60020 | 130 ft | 0 kts | 173° |
| 2026-05-01 14:41 | 40.07010 | 116.60020 | 130 ft | 1 kts | 173° |
| 2026-05-01 14:41 | 40.06990 | 116.60024 | 130 ft | 4 kts | 173° |
| 2026-05-01 14:42 | 40.06951 | 116.60030 | 130 ft | 6 kts | 173° |
| 2026-05-01 14:42 | 40.06895 | 116.60040 | 130 ft | 9 kts | 173° |
| 2026-05-01 14:42 | 40.06824 | 116.60052 | 130 ft | 11 kts | 173° |
| 2026-05-01 14:42 | 40.06741 | 116.60065 | 130 ft | 12 kts | 176° |
| 2026-05-01 14:43 | 40.06645 | 116.60076 | 130 ft | 14 kts | 173° |
| 2026-05-01 14:43 | 40.06540 | 116.60094 | 130 ft | 15 kts | 173° |
| 2026-05-01 14:43 | 40.06463 | 116.60106 | 130 ft | 0 kts | 173° |
| 2026-05-01 14:43 | 40.06453 | 116.60108 | 130 ft | 2 kts | 173° |
| 2026-05-01 14:44 | 40.06424 | 116.60113 | 130 ft | 0 kts | 173° |
| 2026-05-01 14:44 | 40.06380 | 116.60120 | 130 ft | 6 kts | 173° |
| 2026-05-01 14:44 | 40.06329 | 116.60129 | 130 ft | 8 kts | 173° |
| 2026-05-01 14:45 | 40.06249 | 116.60140 | 130 ft | 14 kts | 173° |
| 2026-05-01 14:45 | 40.05979 | 116.60184 | 130 ft | 24 kts | 173° |
| 2026-05-01 14:45 | 40.05795 | 116.60210 | 130 ft | 28 kts | 174° |
| 2026-05-01 14:46 | 40.05631 | 116.60232 | 130 ft | 19 kts | 172° |
| 2026-05-01 14:46 | 40.05547 | 116.60066 | 130 ft | 15 kts | 300° |
| 2026-05-01 14:46 | 40.05667 | 116.59995 | 130 ft | 34 kts | 352° |
| 2026-05-01 14:47 | 40.06172 | 116.59917 | 130 ft | 109 kts | 353° |
| 2026-05-01 14:47 | 40.07151 | 116.59766 | 130 ft | 174 kts | 353° |
| 2026-05-01 14:47 | 40.08458 | 116.59563 | 586 ft | 194 kts | 356° |
| 2026-05-01 14:48 | 40.11266 | 116.59103 | 1720 ft | 217 kts | 358° |
| 2026-05-01 14:48 | 40.12843 | 116.58871 | 2017 ft | 235 kts | 356° |
| 2026-05-01 14:48 | 40.16358 | 116.58319 | 2787 ft | 268 kts | 356° |
| 2026-05-01 14:49 | 40.20142 | 116.57719 | 4125 ft | 277 kts | 354° |
| 2026-05-01 14:49 | 40.23992 | 116.57111 | 5488 ft | 283 kts | 353° |
| 2026-05-01 14:50 | 40.27287 | 116.56573 | 6584 ft | 287 kts | 351° |
| 2026-05-01 14:50 | 40.32014 | 116.55770 | 8061 ft | 294 kts | 351° |
| 2026-05-01 14:51 | 40.34055 | 116.55425 | 8679 ft | 297 kts | 351° |
| 2026-05-01 14:51 | 40.38170 | 116.54731 | 9944 ft | 301 kts | 351° |
| 2026-05-01 14:52 | 40.42457 | 116.54099 | 10680 ft | 327 kts | 358° |
| 2026-05-01 14:52 | 40.44793 | 116.54206 | 10944 ft | 345 kts | 2° |
| 2026-05-01 14:52 | 40.49783 | 116.54591 | 11639 ft | 374 kts | 2° |
| 2026-05-01 14:53 | 40.52465 | 116.54791 | 12017 ft | 389 kts | 2° |
| 2026-05-01 14:53 | 40.55203 | 116.54994 | 12495 ft | 399 kts | 2° |
| 2026-05-01 14:53 | 40.58002 | 116.55202 | 13212 ft | 404 kts | 2° |
| 2026-05-01 14:53 | 40.60772 | 116.55407 | 14058 ft | 405 kts | 2° |
| 2026-05-01 14:54 | 40.63592 | 116.55616 | 14855 ft | 408 kts | 2° |
| 2026-05-01 14:54 | 40.66467 | 116.55829 | 15611 ft | 412 kts | 1° |
| 2026-05-01 14:54 | 40.69322 | 116.56040 | 16375 ft | 416 kts | 1° |
| 2026-05-01 14:54 | 40.72209 | 116.56254 | 17194 ft | 417 kts | 1° |
| 2026-05-01 14:55 | 40.75121 | 116.56469 | 17965 ft | 420 kts | 1° |
| 2026-05-01 14:55 | 40.78045 | 116.56609 | 18642 ft | 422 kts | 355° |
| 2026-05-01 14:55 | 40.80998 | 116.56388 | 19264 ft | 426 kts | 353° |
| 2026-05-01 14:55 | 40.83964 | 116.56109 | 19923 ft | 430 kts | 352° |
| 2026-05-01 14:56 | 40.86974 | 116.55824 | 20576 ft | 433 kts | 352° |
| 2026-05-01 14:56 | 40.90012 | 116.55537 | 21167 ft | 438 kts | 352° |
| 2026-05-01 14:56 | 40.93058 | 116.55251 | 21732 ft | 442 kts | 352° |
| 2026-05-01 14:56 | 40.96149 | 116.54961 | 22290 ft | 447 kts | 352° |
| 2026-05-01 14:57 | 40.99261 | 116.54670 | 22901 ft | 449 kts | 352° |
| 2026-05-01 14:57 | 41.05543 | 116.54082 | 24000 ft | 457 kts | 351° |
| 2026-05-01 14:57 | 41.08715 | 116.53785 | 24557 ft | 459 kts | 351° |
| 2026-05-01 14:58 | 41.11914 | 116.53485 | 25064 ft | 463 kts | 350° |
| 2026-05-01 14:58 | 41.15168 | 116.53180 | 25577 ft | 466 kts | 350° |
| 2026-05-01 14:58 | 41.18414 | 116.52876 | 26154 ft | 468 kts | 349° |
| 2026-05-01 14:58 | 41.21616 | 116.52380 | 26620 ft | 465 kts | 342° |
| 2026-05-01 14:59 | 41.24739 | 116.51279 | 26929 ft | 463 kts | 334° |
| 2026-05-01 14:59 | 41.27698 | 116.49566 | 27298 ft | 460 kts | 326° |
| 2026-05-01 14:59 | 41.30459 | 116.47456 | 27733 ft | 460 kts | 323° |
| 2026-05-01 14:59 | 41.33197 | 116.45289 | 28423 ft | 458 kts | 322° |
| 2026-05-01 15:00 | 41.38667 | 116.40950 | 29628 ft | 456 kts | 322° |
| 2026-05-01 15:00 | 41.41404 | 116.38778 | 30231 ft | 455 kts | 322° |
| 2026-05-01 15:00 | 41.44103 | 116.36637 | 30841 ft | 453 kts | 321° |
| 2026-05-01 15:01 | 41.46821 | 116.34479 | 31451 ft | 450 kts | 321° |
| 2026-05-01 15:01 | 41.49500 | 116.32350 | 32007 ft | 449 kts | 320° |
| 2026-05-01 15:01 | 41.52165 | 116.30230 | 32082 ft | 448 kts | 320° |
| 2026-05-01 15:02 | 41.57450 | 116.26023 | 32120 ft | 442 kts | 320° |
| 2026-05-01 15:02 | 41.62740 | 116.21800 | 32118 ft | 443 kts | 320° |
| 2026-05-01 15:03 | 41.68063 | 116.17545 | 32111 ft | 443 kts | 320° |